createdAt,value
2023-02-28T00:00:38.844Z,504.00
2023-02-28T00:01:38.840Z,506.00
2023-02-28T00:02:38.830Z,507.00
2023-02-28T00:03:38.940Z,508.00
2023-02-28T00:04:38.813Z,508.00
2023-02-28T00:05:38.803Z,507.00
2023-02-28T00:06:38.790Z,507.00
2023-02-28T04:22:59.649Z,485.00
2023-02-28T04:24:59.607Z,485.00
2023-02-28T04:25:59.596Z,487.00
2023-02-28T04:27:59.580Z,488.00
2023-02-28T04:28:59.575Z,488.00
2023-02-28T04:29:59.560Z,485.00
2023-02-28T04:30:59.552Z,484.00
2023-02-28T04:31:59.651Z,482.00
2023-02-28T04:32:59.540Z,483.00
2023-02-28T04:33:59.531Z,484.00
2023-02-28T04:35:59.561Z,484.00
2023-02-28T04:37:59.507Z,484.00
2023-02-28T04:38:59.509Z,485.00
2023-02-28T04:39:59.474Z,484.00
2023-02-28T04:40:59.470Z,483.00
2023-02-28T04:41:59.465Z,484.00
2023-02-28T04:42:59.452Z,483.00
2023-02-28T04:43:59.444Z,481.00
2023-02-28T04:44:59.433Z,483.00
2023-02-28T04:45:59.490Z,481.00
2023-02-28T04:49:59.400Z,483.00
2023-02-28T04:51:59.380Z,483.00
2023-02-28T04:54:59.378Z,486.00
2023-02-28T04:55:59.336Z,485.00
2023-02-28T04:56:59.327Z,485.00
2023-02-28T04:57:59.315Z,485.00
2023-02-28T04:58:59.340Z,484.00
2023-02-28T05:00:59.294Z,484.00
2023-02-28T05:01:59.364Z,481.00
2023-02-28T05:02:59.279Z,478.00
2023-02-28T05:03:59.276Z,479.00
2023-02-28T05:04:59.349Z,478.00
2023-02-28T05:05:59.252Z,477.00
2023-02-28T05:06:59.257Z,475.00
2023-02-28T05:07:59.251Z,474.00
2023-02-28T05:08:59.220Z,474.00
2023-02-28T05:09:59.223Z,475.00
2023-02-28T05:10:59.226Z,475.00
2023-02-28T05:11:59.193Z,473.00
2023-02-28T05:12:59.202Z,473.00
2023-02-28T05:13:59.182Z,474.00
2023-02-28T05:15:59.240Z,475.00
2023-02-28T05:16:59.163Z,474.00
2023-02-28T05:17:59.149Z,472.00
2023-02-28T05:18:59.214Z,474.00
2023-02-28T05:20:13.358Z,472.00
2023-02-28T05:20:59.121Z,473.00
2023-02-28T05:21:59.156Z,476.00
2023-02-28T05:22:59.102Z,477.00
2023-02-28T05:25:59.074Z,479.00
2023-02-28T05:26:59.138Z,478.00
2023-02-28T05:27:59.057Z,480.00
2023-02-28T05:28:59.091Z,479.00
2023-02-28T05:29:59.047Z,478.00
2023-02-28T05:30:59.044Z,478.00
2023-02-28T05:31:59.124Z,477.00
2023-02-28T05:32:59.016Z,480.00
2023-02-28T05:33:59.011Z,478.00
2023-02-28T05:35:59.076Z,476.00
2023-02-28T05:36:58.998Z,476.00
2023-02-28T05:37:58.997Z,476.00
2023-02-28T05:38:58.977Z,475.00
2023-02-28T05:40:58.959Z,474.00
2023-02-28T05:41:58.948Z,472.00
2023-02-28T05:42:58.978Z,472.00
2023-02-28T05:43:58.955Z,472.00
2023-02-28T05:44:58.917Z,471.00
2023-02-28T05:45:58.977Z,474.00
2023-02-28T05:46:58.901Z,476.00
2023-02-28T05:47:58.894Z,475.00
2023-02-28T05:48:58.994Z,474.00
2023-02-28T05:50:58.872Z,474.00
2023-02-28T05:51:58.866Z,475.00
2023-02-28T05:52:58.855Z,478.00
2023-02-28T05:53:58.839Z,480.00
2023-02-28T05:54:58.833Z,478.00
2023-02-28T05:55:58.829Z,477.00
2023-02-28T05:56:58.824Z,478.00
2023-02-28T05:57:58.812Z,478.00
2023-02-28T05:58:58.854Z,475.00
2023-02-28T05:59:58.819Z,474.00
2023-02-28T06:00:58.799Z,472.00
2023-02-28T06:01:58.802Z,471.00
2023-02-28T06:02:58.877Z,470.00
2023-02-28T06:03:58.765Z,470.00
2023-02-28T06:04:58.767Z,471.00
2023-02-28T06:05:58.752Z,468.00
2023-02-28T06:06:58.765Z,471.00
2023-02-28T06:07:58.733Z,472.00
2023-02-28T06:08:58.717Z,472.00
2023-02-28T06:09:58.713Z,473.00
2023-02-28T06:10:59.356Z,473.00
2023-02-28T06:11:58.700Z,473.00
2023-02-28T06:12:58.691Z,470.00
2023-02-28T06:13:58.698Z,469.00
2023-02-28T06:14:58.793Z,467.00
2023-02-28T06:15:58.658Z,466.00
2023-02-28T06:16:59.242Z,463.00
2023-02-28T06:17:58.644Z,460.00
2023-02-28T06:18:58.651Z,457.00
2023-02-28T06:19:58.639Z,460.00
2023-02-28T06:20:58.626Z,463.00
2023-02-28T06:21:58.616Z,466.00
2023-02-28T06:22:58.610Z,468.00
2023-02-28T06:23:58.599Z,472.00
2023-02-28T06:24:58.587Z,474.00
2023-02-28T06:25:58.593Z,474.00
2023-02-28T06:26:58.580Z,474.00
2023-02-28T06:27:58.558Z,475.00
2023-02-28T06:28:58.565Z,475.00
2023-02-28T06:31:58.575Z,474.00
2023-02-28T06:32:58.521Z,475.00
2023-02-28T06:33:58.513Z,478.00
2023-02-28T06:34:58.515Z,481.00
2023-02-28T06:35:58.791Z,482.00
2023-02-28T06:36:58.493Z,482.00
2023-02-28T06:37:58.486Z,482.00
2023-02-28T06:38:58.467Z,483.00
2023-02-28T06:39:58.463Z,481.00
2023-02-28T06:40:58.456Z,480.00
2023-02-28T06:41:58.700Z,481.00
2023-02-28T06:42:58.772Z,485.00
2023-02-28T06:43:58.430Z,489.00
2023-02-28T06:44:58.417Z,493.00
2023-02-28T06:45:58.462Z,498.00
2023-02-28T06:47:58.401Z,507.00
2023-02-28T06:48:58.392Z,510.00
2023-02-28T06:49:58.377Z,513.00
2023-02-28T06:50:58.377Z,518.00
2023-02-28T06:51:58.786Z,527.00
2023-02-28T06:52:58.775Z,544.00
2023-02-28T06:53:58.352Z,573.00
2023-02-28T06:54:58.336Z,593.00
2023-02-28T06:55:58.336Z,631.00
2023-02-28T06:56:58.321Z,656.00
2023-02-28T06:58:58.322Z,710.00
2023-02-28T07:00:01.519Z,720.00
2023-02-28T07:01:58.303Z,755.00
2023-02-28T07:02:58.329Z,777.00
2023-02-28T07:05:58.265Z,817.00
2023-02-28T07:06:58.258Z,827.00
2023-02-28T07:07:58.298Z,835.00
2023-02-28T07:08:58.213Z,844.00
2023-02-28T07:09:58.257Z,872.00
2023-02-28T07:10:58.897Z,883.00
2023-02-28T07:11:58.201Z,892.00
2023-02-28T07:12:58.181Z,900.00
2023-02-28T07:13:58.183Z,909.00
2023-02-28T07:14:58.289Z,915.00
2023-02-28T07:15:58.230Z,921.00
2023-02-28T07:16:58.165Z,919.00
2023-02-28T07:17:58.139Z,920.00
2023-02-28T07:18:58.171Z,925.00
2023-02-28T07:19:58.128Z,924.00
2023-02-28T07:20:58.109Z,928.00
2023-02-28T07:21:58.103Z,931.00
2023-02-28T07:22:58.119Z,927.00
2023-02-28T07:23:58.284Z,927.00
2023-02-28T07:24:58.086Z,928.00
2023-02-28T07:25:58.081Z,928.00
2023-02-28T07:26:58.067Z,923.00
2023-02-28T07:28:58.059Z,918.00
2023-02-28T07:29:58.054Z,922.00
2023-02-28T07:30:58.068Z,916.00
2023-02-28T07:31:58.087Z,915.00
2023-02-28T07:32:58.290Z,916.00
2023-02-28T07:33:57.997Z,917.00
2023-02-28T07:34:58.022Z,924.00
2023-02-28T07:35:58.020Z,925.00
2023-02-28T07:36:57.982Z,922.00
2023-02-28T07:37:58.286Z,920.00
2023-02-28T07:38:57.969Z,918.00
2023-02-28T07:39:57.965Z,916.00
2023-02-28T07:40:57.953Z,913.00
2023-02-28T07:41:57.947Z,909.00
2023-02-28T07:43:58.312Z,909.00
2023-02-28T07:44:57.918Z,911.00
2023-02-28T07:45:57.910Z,908.00
2023-02-28T07:46:58.004Z,910.00
2023-02-28T07:48:57.905Z,907.00
2023-02-28T07:50:57.896Z,904.00
2023-02-28T07:51:57.884Z,905.00
2023-02-28T07:53:57.861Z,920.00
2023-02-28T07:55:57.880Z,912.00
2023-02-28T07:57:58.320Z,922.00
2023-02-28T07:58:57.812Z,924.00
2023-02-28T07:59:57.793Z,926.00
2023-02-28T08:00:57.838Z,929.00
2023-02-28T08:01:57.873Z,931.00
2023-02-28T08:02:57.811Z,939.00
2023-02-28T08:03:57.763Z,940.00
2023-02-28T08:04:57.844Z,938.00
2023-02-28T08:05:57.752Z,935.00
2023-02-28T08:06:57.762Z,932.00
2023-02-28T08:07:57.728Z,931.00
2023-02-28T08:08:57.732Z,918.00
2023-02-28T08:09:57.798Z,916.00
2023-02-28T08:10:57.705Z,914.00
2023-02-28T08:11:57.706Z,914.00
2023-02-28T08:12:57.694Z,904.00
2023-02-28T08:13:57.680Z,902.00
2023-02-28T08:14:57.802Z,895.00
2023-02-28T08:15:57.743Z,886.00
2023-02-28T08:16:57.665Z,886.00
2023-02-28T08:17:57.800Z,894.00
2023-02-28T08:18:57.649Z,904.00
2023-02-28T08:19:57.646Z,911.00
2023-02-28T08:20:57.638Z,912.00
2023-02-28T08:21:57.829Z,918.00
2023-02-28T08:22:57.843Z,921.00
2023-02-28T08:23:57.609Z,923.00
2023-02-28T08:24:57.591Z,920.00
2023-02-28T08:25:57.579Z,917.00
2023-02-28T08:26:57.579Z,910.00
2023-02-28T08:27:58.137Z,906.00
2023-02-28T08:28:59.730Z,897.00
2023-02-28T08:29:57.803Z,901.00
2023-02-28T08:30:57.833Z,902.00
2023-02-28T08:31:57.724Z,899.00
2023-02-28T08:32:57.615Z,901.00
2023-02-28T08:35:57.861Z,895.00
2023-02-28T08:57:57.649Z,924.00
2023-02-28T09:03:57.873Z,914.00
2023-02-28T09:05:57.900Z,919.00
2023-02-28T09:28:57.621Z,917.00
2023-02-28T09:29:57.598Z,923.00
2023-02-28T09:31:57.748Z,932.00
2023-02-28T10:08:00.159Z,886.00
2023-02-28T10:32:57.713Z,875.00
